sensor_id;sensor_type;location;lat;lon;timestamp;temperature;humidity
13211;DHT22;6670;51.53087800;7.23266500;2023-07-02T00:00:03;17.80;99.90
13211;DHT22;6670;51.53087800;7.23266500;2023-07-02T00:02:35;17.80;99.90
13211;DHT22;6670;51.53087800;7.23266500;2023-07-02T00:05:03;17.80;99.90
13211;DHT22;6670;51.53087800;7.23266500;2023-07-02T00:07:30;17.80;99.90
13211;DHT22;6670;51.53087800;7.23266500;2023-07-02T00:10:00;17.80;99.90
13211;DHT22;6670;51.53087800;7.23266500;2023-07-02T00:12:27;17.80;99.90
13211;DHT22;6670;51.53087800;7.23266500;2023-07-02T00:14:55;17.90;99.90
13211;DHT22;6670;51.53087800;7.23266500;2023-07-02T00:17:22;17.80;99.90
13211;DHT22;6670;51.53087800;7.23266500;2023-07-02T00:19:50;17.80;99.90
13211;DHT22;6670;51.53087800;7.23266500;2023-07-02T00:22:17;17.80;99.90
13211;DHT22;6670;51.53087800;7.23266500;2023-07-02T00:24:45;17.80;99.90
13211;DHT22;6670;51.53087800;7.23266500;2023-07-02T00:27:14;17.80;99.90
13211;DHT22;6670;51.53087800;7.23266500;2023-07-02T00:29:41;17.80;99.90
13211;DHT22;6670;51.53087800;7.23266500;2023-07-02T00:32:09;17.80;99.90
13211;DHT22;6670;51.53087800;7.23266500;2023-07-02T00:34:36;17.80;99.90
13211;DHT22;6670;51.53087800;7.23266500;2023-07-02T00:37:10;17.80;99.90
13211;DHT22;6670;51.53087800;7.23266500;2023-07-02T00:39:37;17.80;99.90
13211;DHT22;6670;51.53087800;7.23266500;2023-07-02T00:42:05;17.80;99.90
13211;DHT22;6670;51.53087800;7.23266500;2023-07-02T00:44:35;17.80;99.90
13211;DHT22;6670;51.53087800;7.23266500;2023-07-02T00:47:07;17.80;99.90
13211;DHT22;6670;51.53087800;7.23266500;2023-07-02T00:49:34;17.80;99.90
13211;DHT22;6670;51.53087800;7.23266500;2023-07-02T00:52:02;17.80;99.90
13211;DHT22;6670;51.53087800;7.23266500;2023-07-02T00:54:30;17.80;99.90
13211;DHT22;6670;51.53087800;7.23266500;2023-07-02T00:57:00;17.80;99.90
13211;DHT22;6670;51.53087800;7.23266500;2023-07-02T00:59:29;17.80;99.90
13211;DHT22;6670;51.53087800;7.23266500;2023-07-02T01:01:58;17.70;99.90
13211;DHT22;6670;51.53087800;7.23266500;2023-07-02T01:04:26;17.70;99.90
13211;DHT22;6670;51.53087800;7.23266500;2023-07-02T01:06:54;17.80;99.90
13211;DHT22;6670;51.53087800;7.23266500;2023-07-02T01:09:24;17.70;99.90
13211;DHT22;6670;51.53087800;7.23266500;2023-07-02T01:11:54;17.70;99.90
13211;DHT22;6670;51.53087800;7.23266500;2023-07-02T01:14:25;17.70;99.90
13211;DHT22;6670;51.53087800;7.23266500;2023-07-02T01:16:55;17.70;99.90
13211;DHT22;6670;51.53087800;7.23266500;2023-07-02T01:19:35;17.70;99.90
13211;DHT22;6670;51.53087800;7.23266500;2023-07-02T01:22:07;17.70;99.90
13211;DHT22;6670;51.53087800;7.23266500;2023-07-02T01:24:35;17.60;99.90
13211;DHT22;6670;51.53087800;7.23266500;2023-07-02T01:27:03;17.60;99.90
13211;DHT22;6670;51.53087800;7.23266500;2023-07-02T01:29:31;17.50;99.90
13211;DHT22;6670;51.53087800;7.23266500;2023-07-02T01:31:58;17.50;99.90
13211;DHT22;6670;51.53087800;7.23266500;2023-07-02T01:34:26;17.40;99.90
13211;DHT22;6670;51.53087800;7.23266500;2023-07-02T01:36:54;17.40;99.90
13211;DHT22;6670;51.53087800;7.23266500;2023-07-02T01:39:22;17.40;99.90
13211;DHT22;6670;51.53087800;7.23266500;2023-07-02T01:41:51;17.50;99.90
13211;DHT22;6670;51.53087800;7.23266500;2023-07-02T01:44:20;17.50;99.90
13211;DHT22;6670;51.53087800;7.23266500;2023-07-02T01:46:48;17.30;99.90
13211;DHT22;6670;51.53087800;7.23266500;2023-07-02T01:49:16;17.40;99.90
13211;DHT22;6670;51.53087800;7.23266500;2023-07-02T01:51:45;17.50;99.90
13211;DHT22;6670;51.53087800;7.23266500;2023-07-02T01:54:14;17.40;99.90
13211;DHT22;6670;51.53087800;7.23266500;2023-07-02T01:56:42;17.40;99.90
13211;DHT22;6670;51.53087800;7.23266500;2023-07-02T01:59:09;17.50;99.90
13211;DHT22;6670;51.53087800;7.23266500;2023-07-02T02:01:39;17.50;99.90
13211;DHT22;6670;51.53087800;7.23266500;2023-07-02T02:04:07;17.50;99.90
13211;DHT22;6670;51.53087800;7.23266500;2023-07-02T02:06:35;17.50;99.90
13211;DHT22;6670;51.53087800;7.23266500;2023-07-02T02:09:03;17.30;99.90
13211;DHT22;6670;51.53087800;7.23266500;2023-07-02T02:11:33;17.30;99.90
13211;DHT22;6670;51.53087800;7.23266500;2023-07-02T02:14:01;17.30;99.90
13211;DHT22;6670;51.53087800;7.23266500;2023-07-02T02:16:29;17.30;99.90
13211;DHT22;6670;51.53087800;7.23266500;2023-07-02T02:18:56;17.30;99.90
13211;DHT22;6670;51.53087800;7.23266500;2023-07-02T02:21:24;17.20;99.90
13211;DHT22;6670;51.53087800;7.23266500;2023-07-02T02:23:51;17.20;99.90
13211;DHT22;6670;51.53087800;7.23266500;2023-07-02T02:26:18;17.20;99.90
13211;DHT22;6670;51.53087800;7.23266500;2023-07-02T02:28:49;17.20;99.90
13211;DHT22;6670;51.53087800;7.23266500;2023-07-02T02:31:17;17.20;99.90
13211;DHT22;6670;51.53087800;7.23266500;2023-07-02T02:33:44;17.10;99.90
13211;DHT22;6670;51.53087800;7.23266500;2023-07-02T02:36:12;17.20;99.90
13211;DHT22;6670;51.53087800;7.23266500;2023-07-02T02:38:40;17.20;99.90
13211;DHT22;6670;51.53087800;7.23266500;2023-07-02T02:41:08;17.20;99.90
13211;DHT22;6670;51.53087800;7.23266500;2023-07-02T02:43:41;17.10;99.90
13211;DHT22;6670;51.53087800;7.23266500;2023-07-02T02:46:12;17.00;99.90
13211;DHT22;6670;51.53087800;7.23266500;2023-07-02T02:48:39;17.00;99.90
13211;DHT22;6670;51.53087800;7.23266500;2023-07-02T02:51:07;17.00;99.90
13211;DHT22;6670;51.53087800;7.23266500;2023-07-02T02:53:34;17.00;99.90
13211;DHT22;6670;51.53087800;7.23266500;2023-07-02T02:56:02;16.90;99.90
13211;DHT22;6670;51.53087800;7.23266500;2023-07-02T02:58:29;17.00;99.90
13211;DHT22;6670;51.53087800;7.23266500;2023-07-02T03:00:57;16.90;99.90
13211;DHT22;6670;51.53087800;7.23266500;2023-07-02T03:03:25;16.90;99.90
13211;DHT22;6670;51.53087800;7.23266500;2023-07-02T03:05:53;16.90;99.90
13211;DHT22;6670;51.53087800;7.23266500;2023-07-02T03:08:20;16.90;99.90
13211;DHT22;6670;51.53087800;7.23266500;2023-07-02T03:10:48;16.80;99.90
13211;DHT22;6670;51.53087800;7.23266500;2023-07-02T03:13:15;16.80;99.90
13211;DHT22;6670;51.53087800;7.23266500;2023-07-02T03:15:42;16.80;99.90
13211;DHT22;6670;51.53087800;7.23266500;2023-07-02T03:18:10;16.80;99.90
13211;DHT22;6670;51.53087800;7.23266500;2023-07-02T03:20:39;16.90;99.90
13211;DHT22;6670;51.53087800;7.23266500;2023-07-02T03:23:06;16.80;99.90
13211;DHT22;6670;51.53087800;7.23266500;2023-07-02T03:25:34;16.80;99.90
13211;DHT22;6670;51.53087800;7.23266500;2023-07-02T03:28:01;16.80;99.90
13211;DHT22;6670;51.53087800;7.23266500;2023-07-02T03:30:29;16.80;99.90
13211;DHT22;6670;51.53087800;7.23266500;2023-07-02T03:32:57;16.90;99.90
13211;DHT22;6670;51.53087800;7.23266500;2023-07-02T03:35:25;16.80;99.90
13211;DHT22;6670;51.53087800;7.23266500;2023-07-02T03:37:54;17.00;99.90
13211;DHT22;6670;51.53087800;7.23266500;2023-07-02T03:40:21;17.00;99.90
13211;DHT22;6670;51.53087800;7.23266500;2023-07-02T03:42:49;17.10;99.90
13211;DHT22;6670;51.53087800;7.23266500;2023-07-02T03:45:19;17.10;99.90
13211;DHT22;6670;51.53087800;7.23266500;2023-07-02T03:47:46;17.00;99.90
13211;DHT22;6670;51.53087800;7.23266500;2023-07-02T03:50:14;17.00;99.90
13211;DHT22;6670;51.53087800;7.23266500;2023-07-02T03:52:41;17.00;99.90
13211;DHT22;6670;51.53087800;7.23266500;2023-07-02T03:55:10;17.00;99.90
13211;DHT22;6670;51.53087800;7.23266500;2023-07-02T03:57:37;17.10;99.90
13211;DHT22;6670;51.53087800;7.23266500;2023-07-02T04:00:06;17.10;99.90
13211;DHT22;6670;51.53087800;7.23266500;2023-07-02T04:02:40;17.00;99.90
13211;DHT22;6670;51.53087800;7.23266500;2023-07-02T04:05:08;17.00;99.90
13211;DHT22;6670;51.53087800;7.23266500;2023-07-02T04:07:36;17.00;99.90
13211;DHT22;6670;51.53087800;7.23266500;2023-07-02T04:10:04;17.00;99.90
13211;DHT22;6670;51.53087800;7.23266500;2023-07-02T04:12:32;17.10;99.90
13211;DHT22;6670;51.53087800;7.23266500;2023-07-02T04:15:00;17.20;99.90
13211;DHT22;6670;51.53087800;7.23266500;2023-07-02T04:17:28;17.20;99.90
13211;DHT22;6670;51.53087800;7.23266500;2023-07-02T04:19:56;17.10;99.90
13211;DHT22;6670;51.53087800;7.23266500;2023-07-02T04:22:24;17.00;99.90
13211;DHT22;6670;51.53087800;7.23266500;2023-07-02T04:25:22;16.90;99.90
13211;DHT22;6670;51.53087800;7.23266500;2023-07-02T04:27:50;16.90;99.90
13211;DHT22;6670;51.53087800;7.23266500;2023-07-02T04:30:22;16.90;99.90
13211;DHT22;6670;51.53087800;7.23266500;2023-07-02T04:32:50;16.90;99.90
13211;DHT22;6670;51.53087800;7.23266500;2023-07-02T04:35:18;17.00;99.90
13211;DHT22;6670;51.53087800;7.23266500;2023-07-02T04:37:45;17.00;99.90
13211;DHT22;6670;51.53087800;7.23266500;2023-07-02T04:40:13;17.00;99.90
13211;DHT22;6670;51.53087800;7.23266500;2023-07-02T04:42:42;17.00;99.90
13211;DHT22;6670;51.53087800;7.23266500;2023-07-02T04:45:14;16.90;99.90
13211;DHT22;6670;51.53087800;7.23266500;2023-07-02T04:47:42;16.90;99.90
13211;DHT22;6670;51.53087800;7.23266500;2023-07-02T04:50:10;16.90;99.90
13211;DHT22;6670;51.53087800;7.23266500;2023-07-02T04:52:38;16.90;99.90
13211;DHT22;6670;51.53087800;7.23266500;2023-07-02T04:55:06;16.90;99.90
13211;DHT22;6670;51.53087800;7.23266500;2023-07-02T04:57:34;16.90;99.90
13211;DHT22;6670;51.53087800;7.23266500;2023-07-02T05:00:02;17.00;99.90
13211;DHT22;6670;51.53087800;7.23266500;2023-07-02T05:02:35;17.00;99.90
13211;DHT22;6670;51.53087800;7.23266500;2023-07-02T05:05:04;16.90;99.90
13211;DHT22;6670;51.53087800;7.23266500;2023-07-02T05:07:35;17.00;99.90
13211;DHT22;6670;51.53087800;7.23266500;2023-07-02T05:10:03;17.00;99.90
13211;DHT22;6670;51.53087800;7.23266500;2023-07-02T05:12:39;17.00;99.90
13211;DHT22;6670;51.53087800;7.23266500;2023-07-02T05:15:07;17.00;99.90
13211;DHT22;6670;51.53087800;7.23266500;2023-07-02T05:17:36;17.00;99.90
13211;DHT22;6670;51.53087800;7.23266500;2023-07-02T05:20:04;17.00;99.90
13211;DHT22;6670;51.53087800;7.23266500;2023-07-02T05:22:31;16.90;99.90
13211;DHT22;6670;51.53087800;7.23266500;2023-07-02T05:24:59;16.90;99.90
13211;DHT22;6670;51.53087800;7.23266500;2023-07-02T05:27:42;16.90;99.90
13211;DHT22;6670;51.53087800;7.23266500;2023-07-02T05:30:11;17.10;99.90
13211;DHT22;6670;51.53087800;7.23266500;2023-07-02T05:32:40;17.10;99.90
13211;DHT22;6670;51.53087800;7.23266500;2023-07-02T05:35:08;17.20;99.90
13211;DHT22;6670;51.53087800;7.23266500;2023-07-02T05:37:35;17.20;99.90
13211;DHT22;6670;51.53087800;7.23266500;2023-07-02T05:40:03;17.20;99.90
13211;DHT22;6670;51.53087800;7.23266500;2023-07-02T05:42:31;17.30;99.90
13211;DHT22;6670;51.53087800;7.23266500;2023-07-02T05:45:07;17.20;99.90
13211;DHT22;6670;51.53087800;7.23266500;2023-07-02T05:47:35;17.10;99.90
13211;DHT22;6670;51.53087800;7.23266500;2023-07-02T05:50:05;17.10;99.90
13211;DHT22;6670;51.53087800;7.23266500;2023-07-02T05:52:32;17.20;99.90
13211;DHT22;6670;51.53087800;7.23266500;2023-07-02T05:55:00;17.20;99.90
13211;DHT22;6670;51.53087800;7.23266500;2023-07-02T05:57:27;17.20;99.90
13211;DHT22;6670;51.53087800;7.23266500;2023-07-02T05:59:54;17.30;99.90
13211;DHT22;6670;51.53087800;7.23266500;2023-07-02T06:02:39;17.40;99.90
13211;DHT22;6670;51.53087800;7.23266500;2023-07-02T06:05:08;17.60;99.90
13211;DHT22;6670;51.53087800;7.23266500;2023-07-02T06:07:36;17.50;99.90
13211;DHT22;6670;51.53087800;7.23266500;2023-07-02T06:10:04;17.40;99.90
13211;DHT22;6670;51.53087800;7.23266500;2023-07-02T06:12:31;17.50;99.90
13211;DHT22;6670;51.53087800;7.23266500;2023-07-02T06:14:59;17.40;99.90
13211;DHT22;6670;51.53087800;7.23266500;2023-07-02T06:17:26;17.60;99.90
13211;DHT22;6670;51.53087800;7.23266500;2023-07-02T06:19:53;17.70;99.90
13211;DHT22;6670;51.53087800;7.23266500;2023-07-02T06:22:22;17.60;99.90
13211;DHT22;6670;51.53087800;7.23266500;2023-07-02T06:24:57;17.50;99.90
13211;DHT22;6670;51.53087800;7.23266500;2023-07-02T06:27:24;17.40;99.90
13211;DHT22;6670;51.53087800;7.23266500;2023-07-02T06:29:52;17.40;99.90
13211;DHT22;6670;51.53087800;7.23266500;2023-07-02T06:32:19;17.50;99.90
13211;DHT22;6670;51.53087800;7.23266500;2023-07-02T06:34:47;17.50;99.90
13211;DHT22;6670;51.53087800;7.23266500;2023-07-02T06:37:14;17.70;99.90
13211;DHT22;6670;51.53087800;7.23266500;2023-07-02T06:39:43;17.70;99.90
13211;DHT22;6670;51.53087800;7.23266500;2023-07-02T06:42:10;17.80;99.90
13211;DHT22;6670;51.53087800;7.23266500;2023-07-02T06:44:40;18.00;99.90
13211;DHT22;6670;51.53087800;7.23266500;2023-07-02T06:47:08;18.00;99.90
13211;DHT22;6670;51.53087800;7.23266500;2023-07-02T06:49:36;17.90;99.90
13211;DHT22;6670;51.53087800;7.23266500;2023-07-02T06:52:05;18.10;99.90
13211;DHT22;6670;51.53087800;7.23266500;2023-07-02T06:54:54;18.10;99.90
13211;DHT22;6670;51.53087800;7.23266500;2023-07-02T06:57:23;18.30;99.90
13211;DHT22;6670;51.53087800;7.23266500;2023-07-02T06:59:51;18.10;99.90
13211;DHT22;6670;51.53087800;7.23266500;2023-07-02T07:02:18;18.20;99.90
13211;DHT22;6670;51.53087800;7.23266500;2023-07-02T07:04:45;18.10;99.90
13211;DHT22;6670;51.53087800;7.23266500;2023-07-02T07:07:25;18.10;99.90
13211;DHT22;6670;51.53087800;7.23266500;2023-07-02T07:09:55;18.30;99.90
13211;DHT22;6670;51.53087800;7.23266500;2023-07-02T07:12:22;18.20;99.90
13211;DHT22;6670;51.53087800;7.23266500;2023-07-02T07:14:50;18.30;99.90
13211;DHT22;6670;51.53087800;7.23266500;2023-07-02T07:17:17;18.40;99.90
13211;DHT22;6670;51.53087800;7.23266500;2023-07-02T07:19:45;18.50;99.90
13211;DHT22;6670;51.53087800;7.23266500;2023-07-02T07:22:12;18.60;99.90
13211;DHT22;6670;51.53087800;7.23266500;2023-07-02T07:24:44;18.70;99.90
13211;DHT22;6670;51.53087800;7.23266500;2023-07-02T07:27:13;18.70;99.90
13211;DHT22;6670;51.53087800;7.23266500;2023-07-02T07:29:43;18.70;99.90
13211;DHT22;6670;51.53087800;7.23266500;2023-07-02T07:32:11;18.60;99.90
13211;DHT22;6670;51.53087800;7.23266500;2023-07-02T07:34:38;18.50;99.90
13211;DHT22;6670;51.53087800;7.23266500;2023-07-02T07:37:05;18.60;99.90
13211;DHT22;6670;51.53087800;7.23266500;2023-07-02T07:39:33;18.60;99.90
13211;DHT22;6670;51.53087800;7.23266500;2023-07-02T07:42:00;18.60;98.70
13211;DHT22;6670;51.53087800;7.23266500;2023-07-02T07:44:29;18.50;97.10
13211;DHT22;6670;51.53087800;7.23266500;2023-07-02T07:46:57;18.60;97.60
13211;DHT22;6670;51.53087800;7.23266500;2023-07-02T07:49:24;18.60;98.60
13211;DHT22;6670;51.53087800;7.23266500;2023-07-02T07:51:51;18.80;98.80
13211;DHT22;6670;51.53087800;7.23266500;2023-07-02T07:54:19;18.70;99.90
13211;DHT22;6670;51.53087800;7.23266500;2023-07-02T07:56:49;18.70;99.90
13211;DHT22;6670;51.53087800;7.23266500;2023-07-02T07:59:16;18.70;99.10
13211;DHT22;6670;51.53087800;7.23266500;2023-07-02T08:01:45;18.80;96.70
13211;DHT22;6670;51.53087800;7.23266500;2023-07-02T08:04:13;18.70;94.40
13211;DHT22;6670;51.53087800;7.23266500;2023-07-02T08:06:40;18.60;94.20
13211;DHT22;6670;51.53087800;7.23266500;2023-07-02T08:09:08;18.60;94.70
13211;DHT22;6670;51.53087800;7.23266500;2023-07-02T08:11:36;18.70;95.10
13211;DHT22;6670;51.53087800;7.23266500;2023-07-02T08:14:04;18.70;95.90
13211;DHT22;6670;51.53087800;7.23266500;2023-07-02T08:16:33;18.90;96.20
13211;DHT22;6670;51.53087800;7.23266500;2023-07-02T08:19:02;19.10;95.90
13211;DHT22;6670;51.53087800;7.23266500;2023-07-02T08:21:29;18.90;95.70
13211;DHT22;6670;51.53087800;7.23266500;2023-07-02T08:23:57;18.90;95.90
13211;DHT22;6670;51.53087800;7.23266500;2023-07-02T08:26:25;19.20;96.00
13211;DHT22;6670;51.53087800;7.23266500;2023-07-02T08:28:52;19.20;95.40
13211;DHT22;6670;51.53087800;7.23266500;2023-07-02T08:31:19;19.30;96.00
13211;DHT22;6670;51.53087800;7.23266500;2023-07-02T08:33:47;19.40;95.70
13211;DHT22;6670;51.53087800;7.23266500;2023-07-02T08:36:16;19.50;95.70
13211;DHT22;6670;51.53087800;7.23266500;2023-07-02T08:38:43;19.50;95.30
13211;DHT22;6670;51.53087800;7.23266500;2023-07-02T08:41:12;19.50;95.30
13211;DHT22;6670;51.53087800;7.23266500;2023-07-02T08:43:40;19.40;95.30
13211;DHT22;6670;51.53087800;7.23266500;2023-07-02T08:46:07;19.30;94.90
13211;DHT22;6670;51.53087800;7.23266500;2023-07-02T08:48:36;19.10;95.40
13211;DHT22;6670;51.53087800;7.23266500;2023-07-02T08:51:03;19.30;94.90
13211;DHT22;6670;51.53087800;7.23266500;2023-07-02T08:53:32;19.20;94.40
13211;DHT22;6670;51.53087800;7.23266500;2023-07-02T08:56:03;19.00;93.30
13211;DHT22;6670;51.53087800;7.23266500;2023-07-02T08:58:30;19.00;94.00
13211;DHT22;6670;51.53087800;7.23266500;2023-07-02T09:01:07;19.20;93.80
13211;DHT22;6670;51.53087800;7.23266500;2023-07-02T09:03:36;19.10;93.60
13211;DHT22;6670;51.53087800;7.23266500;2023-07-02T09:06:20;19.20;93.60
13211;DHT22;6670;51.53087800;7.23266500;2023-07-02T09:08:49;19.20;92.70
13211;DHT22;6670;51.53087800;7.23266500;2023-07-02T09:11:16;19.40;92.20
13211;DHT22;6670;51.53087800;7.23266500;2023-07-02T09:13:47;19.20;92.60
13211;DHT22;6670;51.53087800;7.23266500;2023-07-02T09:16:33;19.20;92.40
13211;DHT22;6670;51.53087800;7.23266500;2023-07-02T09:19:04;19.20;92.10
13211;DHT22;6670;51.53087800;7.23266500;2023-07-02T09:21:40;19.20;92.00
13211;DHT22;6670;51.53087800;7.23266500;2023-07-02T09:24:21;19.50;91.90
13211;DHT22;6670;51.53087800;7.23266500;2023-07-02T09:26:50;19.50;91.60
13211;DHT22;6670;51.53087800;7.23266500;2023-07-02T09:29:20;19.60;91.60
13211;DHT22;6670;51.53087800;7.23266500;2023-07-02T09:31:48;19.80;92.10
13211;DHT22;6670;51.53087800;7.23266500;2023-07-02T09:34:16;19.60;90.60
13211;DHT22;6670;51.53087800;7.23266500;2023-07-02T09:36:43;19.40;90.20
13211;DHT22;6670;51.53087800;7.23266500;2023-07-02T09:39:19;19.40;90.20
13211;DHT22;6670;51.53087800;7.23266500;2023-07-02T09:41:49;19.60;91.20
13211;DHT22;6670;51.53087800;7.23266500;2023-07-02T09:44:18;19.70;90.30
13211;DHT22;6670;51.53087800;7.23266500;2023-07-02T09:46:49;19.60;90.20
13211;DHT22;6670;51.53087800;7.23266500;2023-07-02T09:49:20;19.50;90.40
13211;DHT22;6670;51.53087800;7.23266500;2023-07-02T09:51:49;19.40;90.20
13211;DHT22;6670;51.53087800;7.23266500;2023-07-02T09:54:19;19.50;90.70
13211;DHT22;6670;51.53087800;7.23266500;2023-07-02T09:56:47;19.50;90.80
13211;DHT22;6670;51.53087800;7.23266500;2023-07-02T09:59:14;19.60;91.30
13211;DHT22;6670;51.53087800;7.23266500;2023-07-02T10:01:42;19.50;91.10
13211;DHT22;6670;51.53087800;7.23266500;2023-07-02T10:04:13;19.60;91.90
13211;DHT22;6670;51.53087800;7.23266500;2023-07-02T10:06:45;19.90;91.90
13211;DHT22;6670;51.53087800;7.23266500;2023-07-02T10:09:16;19.90;91.90
13211;DHT22;6670;51.53087800;7.23266500;2023-07-02T10:11:45;19.70;91.60
13211;DHT22;6670;51.53087800;7.23266500;2023-07-02T10:14:13;19.40;91.00
13211;DHT22;6670;51.53087800;7.23266500;2023-07-02T10:16:51;19.50;91.30
13211;DHT22;6670;51.53087800;7.23266500;2023-07-02T10:19:19;19.50;90.80
13211;DHT22;6670;51.53087800;7.23266500;2023-07-02T10:21:47;19.30;91.00
13211;DHT22;6670;51.53087800;7.23266500;2023-07-02T10:24:17;19.50;91.10
13211;DHT22;6670;51.53087800;7.23266500;2023-07-02T10:26:56;19.60;91.00
13211;DHT22;6670;51.53087800;7.23266500;2023-07-02T10:29:25;19.40;90.60
13211;DHT22;6670;51.53087800;7.23266500;2023-07-02T10:31:54;19.40;90.80
13211;DHT22;6670;51.53087800;7.23266500;2023-07-02T10:34:29;19.30;90.60
13211;DHT22;6670;51.53087800;7.23266500;2023-07-02T10:36:57;19.60;90.80
13211;DHT22;6670;51.53087800;7.23266500;2023-07-02T10:39:25;19.60;90.60
13211;DHT22;6670;51.53087800;7.23266500;2023-07-02T10:41:52;19.60;90.30
13211;DHT22;6670;51.53087800;7.23266500;2023-07-02T10:44:21;19.70;90.00
13211;DHT22;6670;51.53087800;7.23266500;2023-07-02T10:46:50;19.80;90.00
13211;DHT22;6670;51.53087800;7.23266500;2023-07-02T10:49:18;19.60;90.10
13211;DHT22;6670;51.53087800;7.23266500;2023-07-02T10:51:56;19.80;90.20
13211;DHT22;6670;51.53087800;7.23266500;2023-07-02T10:54:47;19.90;90.10
13211;DHT22;6670;51.53087800;7.23266500;2023-07-02T10:57:17;20.20;90.10
13211;DHT22;6670;51.53087800;7.23266500;2023-07-02T10:59:48;20.40;89.40
13211;DHT22;6670;51.53087800;7.23266500;2023-07-02T11:02:22;20.50;90.00
13211;DHT22;6670;51.53087800;7.23266500;2023-07-02T11:04:50;20.70;90.10
13211;DHT22;6670;51.53087800;7.23266500;2023-07-02T11:07:22;20.60;89.50
13211;DHT22;6670;51.53087800;7.23266500;2023-07-02T11:09:50;20.50;88.80
13211;DHT22;6670;51.53087800;7.23266500;2023-07-02T11:12:18;20.20;89.20
13211;DHT22;6670;51.53087800;7.23266500;2023-07-02T11:14:47;20.00;88.90
13211;DHT22;6670;51.53087800;7.23266500;2023-07-02T11:17:14;19.80;89.90
13211;DHT22;6670;51.53087800;7.23266500;2023-07-02T11:19:42;19.90;90.00
13211;DHT22;6670;51.53087800;7.23266500;2023-07-02T11:22:17;19.90;88.80
13211;DHT22;6670;51.53087800;7.23266500;2023-07-02T11:24:44;19.60;87.10
13211;DHT22;6670;51.53087800;7.23266500;2023-07-02T11:27:21;19.70;87.00
13211;DHT22;6670;51.53087800;7.23266500;2023-07-02T11:29:59;19.80;86.90
13211;DHT22;6670;51.53087800;7.23266500;2023-07-02T11:32:34;20.10;87.00
13211;DHT22;6670;51.53087800;7.23266500;2023-07-02T11:35:02;20.30;87.80
13211;DHT22;6670;51.53087800;7.23266500;2023-07-02T11:37:29;20.10;87.50
13211;DHT22;6670;51.53087800;7.23266500;2023-07-02T11:39:57;20.30;88.30
13211;DHT22;6670;51.53087800;7.23266500;2023-07-02T11:42:24;20.30;87.80
13211;DHT22;6670;51.53087800;7.23266500;2023-07-02T11:44:53;20.50;84.80
13211;DHT22;6670;51.53087800;7.23266500;2023-07-02T11:47:21;20.60;85.30
13211;DHT22;6670;51.53087800;7.23266500;2023-07-02T11:49:48;20.40;85.10
13211;DHT22;6670;51.53087800;7.23266500;2023-07-02T11:52:16;20.60;85.30
13211;DHT22;6670;51.53087800;7.23266500;2023-07-02T11:54:43;20.50;85.40
13211;DHT22;6670;51.53087800;7.23266500;2023-07-02T11:57:11;20.80;83.30
13211;DHT22;6670;51.53087800;7.23266500;2023-07-02T11:59:38;21.10;82.50
13211;DHT22;6670;51.53087800;7.23266500;2023-07-02T12:02:07;21.10;82.60
13211;DHT22;6670;51.53087800;7.23266500;2023-07-02T12:04:35;21.30;82.30
13211;DHT22;6670;51.53087800;7.23266500;2023-07-02T12:07:02;21.50;81.40
13211;DHT22;6670;51.53087800;7.23266500;2023-07-02T12:09:30;21.20;80.10
13211;DHT22;6670;51.53087800;7.23266500;2023-07-02T12:11:58;21.30;79.90
13211;DHT22;6670;51.53087800;7.23266500;2023-07-02T12:14:25;21.10;80.10
13211;DHT22;6670;51.53087800;7.23266500;2023-07-02T12:16:53;20.60;79.10
13211;DHT22;6670;51.53087800;7.23266500;2023-07-02T12:19:22;20.50;80.70
13211;DHT22;6670;51.53087800;7.23266500;2023-07-02T12:21:49;21.00;80.40
13211;DHT22;6670;51.53087800;7.23266500;2023-07-02T12:24:17;21.20;79.20
13211;DHT22;6670;51.53087800;7.23266500;2023-07-02T12:26:44;20.90;78.90
13211;DHT22;6670;51.53087800;7.23266500;2023-07-02T12:29:12;20.80;78.70
13211;DHT22;6670;51.53087800;7.23266500;2023-07-02T12:31:39;21.10;79.50
13211;DHT22;6670;51.53087800;7.23266500;2023-07-02T12:34:07;21.10;79.30
13211;DHT22;6670;51.53087800;7.23266500;2023-07-02T12:36:35;20.90;79.80
13211;DHT22;6670;51.53087800;7.23266500;2023-07-02T12:39:03;21.20;79.50
13211;DHT22;6670;51.53087800;7.23266500;2023-07-02T12:41:30;21.60;78.70
13211;DHT22;6670;51.53087800;7.23266500;2023-07-02T12:43:58;21.80;78.70
13211;DHT22;6670;51.53087800;7.23266500;2023-07-02T12:46:25;21.60;79.30
13211;DHT22;6670;51.53087800;7.23266500;2023-07-02T12:48:56;21.90;81.50
13211;DHT22;6670;51.53087800;7.23266500;2023-07-02T12:51:23;21.90;78.10
13211;DHT22;6670;51.53087800;7.23266500;2023-07-02T12:53:52;21.60;79.10
13211;DHT22;6670;51.53087800;7.23266500;2023-07-02T12:56:20;21.40;79.70
13211;DHT22;6670;51.53087800;7.23266500;2023-07-02T12:58:47;21.20;80.50
13211;DHT22;6670;51.53087800;7.23266500;2023-07-02T13:01:17;20.90;81.10
13211;DHT22;6670;51.53087800;7.23266500;2023-07-02T13:03:45;21.00;81.60
13211;DHT22;6670;51.53087800;7.23266500;2023-07-02T13:06:13;21.20;81.30
13211;DHT22;6670;51.53087800;7.23266500;2023-07-02T13:08:41;21.30;82.60
13211;DHT22;6670;51.53087800;7.23266500;2023-07-02T13:11:09;21.30;83.20
13211;DHT22;6670;51.53087800;7.23266500;2023-07-02T13:13:37;21.20;82.20
13211;DHT22;6670;51.53087800;7.23266500;2023-07-02T13:16:10;21.40;83.10
13211;DHT22;6670;51.53087800;7.23266500;2023-07-02T13:18:44;21.30;81.00
13211;DHT22;6670;51.53087800;7.23266500;2023-07-02T13:21:11;21.40;81.00
13211;DHT22;6670;51.53087800;7.23266500;2023-07-02T13:23:39;21.40;83.10
13211;DHT22;6670;51.53087800;7.23266500;2023-07-02T13:26:06;21.20;83.10
13211;DHT22;6670;51.53087800;7.23266500;2023-07-02T13:28:35;21.30;82.50
13211;DHT22;6670;51.53087800;7.23266500;2023-07-02T13:31:02;21.60;83.00
13211;DHT22;6670;51.53087800;7.23266500;2023-07-02T13:33:30;21.70;82.60
13211;DHT22;6670;51.53087800;7.23266500;2023-07-02T13:35:58;21.50;83.30
13211;DHT22;6670;51.53087800;7.23266500;2023-07-02T13:38:25;21.30;83.40
13211;DHT22;6670;51.53087800;7.23266500;2023-07-02T13:40:53;21.40;82.80
13211;DHT22;6670;51.53087800;7.23266500;2023-07-02T13:43:20;21.70;82.20